createdAt,value
2018-05-31T00:00:59.351Z,0
2018-05-31T00:01:59.933Z,0
2018-05-31T00:03:00.497Z,0
2018-05-31T00:04:01.061Z,0
2018-05-31T00:05:01.626Z,0
2018-05-31T00:06:02.212Z,0
2018-05-31T00:07:02.775Z,0
2018-05-31T00:08:03.340Z,0
2018-05-31T00:09:03.912Z,0
2018-05-31T00:10:04.472Z,0
2018-05-31T00:11:05.022Z,0
2018-05-31T00:12:05.578Z,0
2018-05-31T00:13:06.129Z,0
2018-05-31T00:14:06.676Z,0
2018-05-31T00:15:07.221Z,0
2018-05-31T00:16:07.772Z,0
2018-05-31T00:17:08.324Z,0
2018-05-31T00:18:08.869Z,0
2018-05-31T00:19:09.424Z,0
2018-05-31T00:20:09.974Z,0
2018-05-31T00:21:10.518Z,0
2018-05-31T00:22:11.067Z,0
2018-05-31T00:23:11.620Z,0
2018-05-31T00:24:12.171Z,0
2018-05-31T00:25:12.727Z,0
2018-05-31T00:26:13.275Z,0
2018-05-31T00:27:13.824Z,0
2018-05-31T00:28:14.375Z,0
2018-05-31T00:29:14.926Z,0
2018-05-31T00:30:15.477Z,0
2018-05-31T00:31:16.028Z,0
2018-05-31T00:32:16.577Z,0
2018-05-31T00:33:17.125Z,0
2018-05-31T00:34:17.682Z,0
2018-05-31T00:35:18.231Z,0
2018-05-31T00:36:18.786Z,0
2018-05-31T00:37:19.333Z,0
2018-05-31T00:38:19.882Z,0
2018-05-31T00:39:20.434Z,0
2018-05-31T00:40:20.981Z,0
2018-05-31T00:41:21.527Z,0
2018-05-31T00:42:22.080Z,0
2018-05-31T00:43:22.633Z,0
2018-05-31T00:44:23.179Z,0
2018-05-31T00:45:23.733Z,0
2018-05-31T00:46:24.282Z,0
2018-05-31T00:47:24.833Z,0
2018-05-31T00:48:25.382Z,0
2018-05-31T00:49:25.928Z,0
2018-05-31T00:50:26.483Z,0
2018-05-31T00:51:27.026Z,0
2018-05-31T00:52:27.584Z,0
2018-05-31T00:53:28.130Z,0
2018-05-31T00:54:28.676Z,0
2018-05-31T00:55:29.229Z,0
2018-05-31T00:56:29.779Z,0
2018-05-31T00:57:30.331Z,0
2018-05-31T00:58:30.882Z,0
2018-05-31T00:59:31.427Z,0
2018-05-31T01:00:31.978Z,0
2018-05-31T01:01:32.523Z,0
2018-05-31T01:02:33.081Z,0
2018-05-31T01:03:33.633Z,0
2018-05-31T01:04:34.182Z,0
2018-05-31T01:05:34.735Z,0
2018-05-31T01:06:35.285Z,0
2018-05-31T01:07:35.838Z,0
2018-05-31T01:08:36.392Z,0
2018-05-31T01:09:36.948Z,0
2018-05-31T01:10:37.498Z,0
2018-05-31T01:11:38.047Z,0
2018-05-31T01:12:38.596Z,0
2018-05-31T01:13:39.145Z,0
2018-05-31T01:14:39.691Z,0
2018-05-31T01:15:40.242Z,0
2018-05-31T01:16:40.796Z,0
2018-05-31T01:17:41.352Z,0
2018-05-31T01:18:41.900Z,0
2018-05-31T01:19:42.452Z,0
2018-05-31T01:20:43.002Z,0
2018-05-31T01:21:43.550Z,0
2018-05-31T01:22:44.103Z,0
2018-05-31T01:23:44.652Z,0
2018-05-31T01:24:45.205Z,0
2018-05-31T01:25:45.764Z,0
2018-05-31T01:26:46.320Z,0
2018-05-31T01:27:46.872Z,0
2018-05-31T01:28:47.423Z,0
2018-05-31T01:29:47.972Z,0
2018-05-31T01:30:48.519Z,0
2018-05-31T01:31:49.072Z,0
2018-05-31T01:32:49.624Z,0
2018-05-31T01:33:50.176Z,0
2018-05-31T01:34:50.733Z,0
2018-05-31T01:35:51.285Z,0
2018-05-31T01:36:51.837Z,0
2018-05-31T01:37:52.392Z,0
2018-05-31T01:38:52.935Z,0
2018-05-31T01:39:53.485Z,0
2018-05-31T01:40:54.038Z,0
2018-05-31T01:41:54.582Z,0
2018-05-31T01:42:55.141Z,0
2018-05-31T01:43:55.692Z,0
2018-05-31T01:44:56.239Z,0
2018-05-31T01:45:56.788Z,0
2018-05-31T01:46:57.357Z,0
2018-05-31T01:47:57.890Z,0
2018-05-31T01:48:58.444Z,0
2018-05-31T01:49:58.993Z,0
2018-05-31T01:50:59.545Z,0
2018-05-31T01:52:00.101Z,0
2018-05-31T01:53:00.652Z,0
2018-05-31T01:54:01.201Z,0
2018-05-31T01:55:01.753Z,0
2018-05-31T01:56:02.305Z,0
2018-05-31T01:57:02.870Z,0
2018-05-31T01:58:03.425Z,0
2018-05-31T01:59:04.038Z,0
2018-05-31T02:00:04.586Z,0
2018-05-31T02:01:05.133Z,0
2018-05-31T02:02:05.684Z,0
2018-05-31T02:03:06.241Z,0
2018-05-31T02:04:06.788Z,0
2018-05-31T02:05:07.339Z,0
2018-05-31T02:06:07.898Z,0
2018-05-31T02:07:08.453Z,0
2018-05-31T02:08:09.007Z,0
2018-05-31T02:09:09.559Z,0
2018-05-31T02:10:10.111Z,0
2018-05-31T02:11:10.661Z,0
2018-05-31T02:12:11.213Z,0
2018-05-31T02:13:11.759Z,0
2018-05-31T02:14:12.308Z,0
2018-05-31T02:15:12.875Z,0
2018-05-31T02:16:13.413Z,0
2018-05-31T02:17:13.965Z,0
2018-05-31T02:18:14.517Z,0
2018-05-31T02:19:15.066Z,0
2018-05-31T02:20:15.616Z,0
2018-05-31T02:21:16.166Z,0
2018-05-31T02:22:16.712Z,0
2018-05-31T02:23:17.267Z,0
2018-05-31T02:24:17.812Z,0
2018-05-31T02:25:18.365Z,0
2018-05-31T02:26:18.913Z,0
2018-05-31T02:27:19.462Z,0
2018-05-31T02:28:20.006Z,0
2018-05-31T02:29:20.557Z,0
2018-05-31T02:30:21.110Z,0
2018-05-31T02:31:21.660Z,0
2018-05-31T02:32:22.215Z,0
2018-05-31T02:33:22.765Z,0
2018-05-31T02:34:23.318Z,0
2018-05-31T02:35:23.862Z,0
2018-05-31T02:36:24.420Z,0
2018-05-31T02:37:24.973Z,0
2018-05-31T02:38:25.522Z,0
2018-05-31T02:39:26.075Z,0
2018-05-31T02:40:26.624Z,0
2018-05-31T02:41:27.175Z,4
2018-05-31T02:42:27.728Z,4
2018-05-31T02:43:28.282Z,4
2018-05-31T02:44:28.836Z,0
2018-05-31T02:45:29.386Z,0
2018-05-31T02:46:29.939Z,4
2018-05-31T02:47:30.487Z,4
2018-05-31T02:48:31.041Z,4
2018-05-31T02:49:31.590Z,4
2018-05-31T02:50:32.140Z,4
2018-05-31T02:51:32.692Z,4
2018-05-31T02:52:33.245Z,4
2018-05-31T02:53:33.792Z,8
2018-05-31T02:54:34.344Z,8
2018-05-31T02:55:34.889Z,8
2018-05-31T02:56:35.440Z,8
2018-05-31T02:57:35.992Z,12
2018-05-31T02:58:36.544Z,16
2018-05-31T02:59:37.097Z,16
2018-05-31T03:00:37.646Z,16
2018-05-31T03:01:38.200Z,20
2018-05-31T03:02:38.758Z,24
2018-05-31T03:03:39.307Z,28
2018-05-31T03:04:39.870Z,28
2018-05-31T03:05:40.413Z,32
2018-05-31T03:06:40.966Z,40
2018-05-31T03:07:41.571Z,44
2018-05-31T03:08:42.070Z,48
2018-05-31T03:09:42.627Z,56
2018-05-31T03:10:43.175Z,64
2018-05-31T03:11:43.721Z,72
2018-05-31T03:12:44.272Z,80
2018-05-31T03:13:44.823Z,92
2018-05-31T03:14:45.378Z,104
2018-05-31T03:15:45.929Z,120
2018-05-31T03:16:46.483Z,144
2018-05-31T03:17:47.041Z,164
2018-05-31T03:18:47.588Z,192
2018-05-31T03:19:48.135Z,212
2018-05-31T03:20:48.687Z,240
2018-05-31T03:21:49.245Z,276
2018-05-31T03:22:49.802Z,308
2018-05-31T03:23:50.357Z,340
2018-05-31T03:24:50.916Z,352
2018-05-31T03:25:51.470Z,356
2018-05-31T03:26:52.036Z,360
2018-05-31T03:27:52.577Z,388
2018-05-31T03:28:53.129Z,432
2018-05-31T03:29:53.678Z,476
2018-05-31T03:30:54.228Z,504
2018-05-31T03:31:54.784Z,516
2018-05-31T03:32:55.341Z,532
2018-05-31T03:33:55.899Z,552
2018-05-31T03:34:56.454Z,580
2018-05-31T03:35:57.010Z,620
2018-05-31T03:36:57.562Z,660
2018-05-31T03:37:58.118Z,712
2018-05-31T03:38:58.677Z,768
2018-05-31T03:39:59.229Z,840
2018-05-31T03:40:59.785Z,908
2018-05-31T03:42:00.337Z,972
2018-05-31T03:43:00.891Z,1040
2018-05-31T03:44:01.452Z,1108
2018-05-31T03:45:02.000Z,1172
2018-05-31T03:46:02.551Z,1240
2018-05-31T03:47:03.108Z,1300
2018-05-31T03:48:03.662Z,1364
2018-05-31T03:49:04.209Z,1428
2018-05-31T03:50:04.763Z,1488
2018-05-31T03:51:05.319Z,1552
2018-05-31T03:52:05.884Z,1620
2018-05-31T03:53:06.429Z,1696
2018-05-31T03:54:06.982Z,1776
2018-05-31T03:55:07.538Z,1872
2018-05-31T03:56:08.094Z,1960
2018-05-31T03:57:08.657Z,2064
2018-05-31T03:58:09.209Z,2168
2018-05-31T03:59:09.766Z,2264
2018-05-31T04:00:10.320Z,2372
2018-05-31T04:01:10.998Z,2500
2018-05-31T04:02:11.556Z,2632
2018-05-31T04:03:12.113Z,2752
2018-05-31T04:04:12.671Z,2876
2018-05-31T04:05:13.228Z,3004
2018-05-31T04:06:13.782Z,3140
2018-05-31T04:07:14.345Z,3272
2018-05-31T04:08:14.899Z,3408
2018-05-31T04:09:15.453Z,3528
2018-05-31T04:10:16.005Z,3628
2018-05-31T04:11:16.566Z,3716
2018-05-31T04:12:17.126Z,3816
2018-05-31T04:13:17.676Z,3928
2018-05-31T04:14:18.230Z,4060
2018-05-31T04:15:18.787Z,4188
2018-05-31T04:16:19.341Z,4304
2018-05-31T04:17:19.897Z,4420
2018-05-31T04:18:20.454Z,4556
2018-05-31T04:19:21.012Z,4700
2018-05-31T04:20:21.568Z,4868
2018-05-31T04:21:22.124Z,5056
2018-05-31T04:22:22.679Z,5268
2018-05-31T04:23:23.240Z,5508
2018-05-31T04:24:23.790Z,5740
2018-05-31T04:25:24.368Z,5972
2018-05-31T04:26:24.903Z,6212
2018-05-31T04:27:25.459Z,6484
2018-05-31T04:28:26.024Z,6788
2018-05-31T04:29:26.577Z,7124
2018-05-31T04:30:27.143Z,7464
2018-05-31T04:31:27.698Z,7808
2018-05-31T04:32:28.259Z,8132
2018-05-31T04:33:28.824Z,8344
2018-05-31T04:34:29.385Z,8424
2018-05-31T04:35:29.941Z,8380
2018-05-31T04:36:30.538Z,8368
2018-05-31T04:37:31.051Z,8396
2018-05-31T04:38:31.609Z,8440
2018-05-31T04:39:32.168Z,8496
2018-05-31T04:40:32.725Z,8540
2018-05-31T04:41:33.286Z,8572
2018-05-31T04:42:33.867Z,8596
2018-05-31T04:43:34.405Z,8604
2018-05-31T04:44:34.960Z,8636
2018-05-31T04:45:35.525Z,8688
2018-05-31T04:46:36.214Z,8760
2018-05-31T04:47:36.775Z,8892
2018-05-31T04:48:37.334Z,9100
2018-05-31T04:49:37.889Z,9324
2018-05-31T04:50:38.449Z,9636
2018-05-31T04:51:39.008Z,10088
2018-05-31T04:52:39.569Z,10528
2018-05-31T04:53:40.132Z,11084
2018-05-31T04:54:40.696Z,11660
2018-05-31T04:55:41.292Z,11424
2018-05-31T04:56:41.842Z,11280
2018-05-31T04:57:42.402Z,11544
2018-05-31T04:58:42.964Z,12104
2018-05-31T04:59:43.526Z,11940
2018-05-31T05:00:44.093Z,11816
2018-05-31T05:01:44.653Z,11644
2018-05-31T05:02:45.218Z,11104
2018-05-31T05:03:45.780Z,10436
2018-05-31T05:04:46.343Z,9804
2018-05-31T05:05:46.904Z,9340
2018-05-31T05:06:47.460Z,9000
2018-05-31T05:07:48.021Z,8704
2018-05-31T05:08:48.580Z,8436
2018-05-31T05:09:49.143Z,8208
2018-05-31T05:10:49.707Z,8000
2018-05-31T05:11:50.270Z,7820
2018-05-31T05:12:50.836Z,7644
2018-05-31T05:13:51.401Z,7452
2018-05-31T05:14:51.960Z,7280
2018-05-31T05:15:52.521Z,7132
2018-05-31T05:16:53.084Z,7020
2018-05-31T05:17:53.644Z,6964
2018-05-31T05:18:54.198Z,6944
2018-05-31T05:19:54.753Z,6972
2018-05-31T05:20:55.336Z,7004
2018-05-31T05:21:55.884Z,7052
2018-05-31T05:22:56.443Z,7084
2018-05-31T05:23:56.999Z,7092
2018-05-31T05:24:57.585Z,7096
2018-05-31T05:25:58.129Z,7080
2018-05-31T05:26:58.689Z,7076
2018-05-31T05:27:59.245Z,7064
2018-05-31T05:28:59.808Z,7068
2018-05-31T05:30:00.362Z,7108
2018-05-31T05:31:00.920Z,7164
2018-05-31T05:32:01.476Z,7244
2018-05-31T05:33:02.034Z,7348
2018-05-31T05:34:02.597Z,7464
2018-05-31T05:35:03.152Z,7560
2018-05-31T05:36:03.715Z,7648
2018-05-31T05:37:04.276Z,7724
2018-05-31T05:38:04.829Z,7792
2018-05-31T05:39:05.393Z,7836
2018-05-31T05:40:05.956Z,7868
2018-05-31T05:41:06.514Z,7908
2018-05-31T05:42:07.066Z,7928
2018-05-31T05:43:07.623Z,7952
2018-05-31T05:44:08.180Z,7988
2018-05-31T05:45:08.742Z,8020
2018-05-31T05:46:09.303Z,8084
2018-05-31T05:47:09.863Z,8188
2018-05-31T05:48:10.419Z,8820
2018-05-31T05:49:10.974Z,9036
2018-05-31T05:50:11.590Z,9284
2018-05-31T05:51:12.089Z,9548
2018-05-31T05:52:12.646Z,9808
2018-05-31T05:53:13.202Z,10012
2018-05-31T05:54:13.759Z,10452
2018-05-31T05:55:14.318Z,10524
2018-05-31T05:56:14.878Z,10640
2018-05-31T05:57:15.436Z,10756
2018-05-31T05:58:15.992Z,10896
2018-05-31T05:59:16.552Z,10780
2018-05-31T06:00:17.115Z,10788
2018-05-31T06:01:17.676Z,11028
2018-05-31T06:02:18.233Z,11268
2018-05-31T06:03:18.802Z,11440
2018-05-31T06:04:19.420Z,11660
2018-05-31T06:05:19.919Z,12032
2018-05-31T06:06:20.479Z,12444
2018-05-31T06:07:21.035Z,12796
2018-05-31T06:08:21.595Z,13284
2018-05-31T06:09:22.156Z,13724
2018-05-31T06:10:22.721Z,14108
2018-05-31T06:11:23.278Z,14588
2018-05-31T06:12:23.835Z,14832
2018-05-31T06:13:24.397Z,15248
2018-05-31T06:14:24.957Z,15584
2018-05-31T06:15:25.544Z,15716
2018-05-31T06:16:26.080Z,15800
2018-05-31T06:17:26.633Z,15792
2018-05-31T06:18:27.201Z,15636
2018-05-31T06:19:27.758Z,15232
2018-05-31T06:20:28.316Z,14508
2018-05-31T06:21:28.886Z,13488
2018-05-31T06:22:29.444Z,12300
2018-05-31T06:23:30.002Z,11012
2018-05-31T06:24:30.573Z,9884
2018-05-31T06:25:31.111Z,9000
2018-05-31T06:26:31.771Z,8428
2018-05-31T06:27:32.217Z,7928
2018-05-31T06:28:32.773Z,7592
2018-05-31T06:29:33.353Z,7288
2018-05-31T06:30:33.899Z,6972
2018-05-31T06:31:34.459Z,6736
2018-05-31T06:32:35.018Z,6500
2018-05-31T06:33:35.636Z,6368
2018-05-31T06:34:36.136Z,6332
2018-05-31T06:35:36.690Z,6376
2018-05-31T06:36:37.253Z,6516
2018-05-31T06:37:37.811Z,6704
2018-05-31T06:38:38.368Z,6816
2018-05-31T06:39:38.926Z,6908
2018-05-31T06:40:39.488Z,7000
2018-05-31T06:41:40.039Z,7116
2018-05-31T06:42:40.594Z,7304
2018-05-31T06:43:41.152Z,8016
2018-05-31T06:44:41.711Z,8456
2018-05-31T06:45:42.271Z,8848
2018-05-31T06:46:42.829Z,9252
2018-05-31T06:47:43.385Z,9692
2018-05-31T06:48:43.945Z,10024
2018-05-31T06:49:44.507Z,10252
2018-05-31T06:50:45.072Z,10368
2018-05-31T06:51:45.619Z,10340
2018-05-31T06:52:46.176Z,10180
2018-05-31T06:53:46.738Z,10088
2018-05-31T06:54:47.298Z,9972
2018-05-31T06:55:47.853Z,9956
2018-05-31T06:56:48.410Z,9952
2018-05-31T06:57:48.969Z,10024
2018-05-31T06:58:49.529Z,9996
2018-05-31T06:59:50.089Z,9972
2018-05-31T07:00:50.653Z,10076
2018-05-31T07:01:51.202Z,10376
2018-05-31T07:02:51.765Z,10884
2018-05-31T07:03:52.324Z,11712
2018-05-31T07:04:52.890Z,12992
2018-05-31T07:05:53.454Z,14900
2018-05-31T07:06:54.024Z,17160
2018-05-31T07:07:54.571Z,18660
2018-05-31T07:08:55.128Z,20064
2018-05-31T07:09:55.687Z,20896
2018-05-31T07:10:56.248Z,20992
2018-05-31T07:11:56.806Z,20352
2018-05-31T07:12:57.369Z,19264
2018-05-31T07:13:57.928Z,18440
2018-05-31T07:14:58.489Z,18280
2018-05-31T07:15:59.116Z,18340
2018-05-31T07:16:59.606Z,18620
2018-05-31T07:18:00.167Z,19328
2018-05-31T07:19:00.725Z,19488
2018-05-31T07:20:01.290Z,19392
2018-05-31T07:21:01.850Z,18848
2018-05-31T07:22:02.404Z,18240
2018-05-31T07:23:02.966Z,17480
2018-05-31T07:24:03.532Z,16788
2018-05-31T07:25:04.084Z,16476
2018-05-31T07:26:04.651Z,16376
2018-05-31T07:27:05.213Z,16204
2018-05-31T07:28:05.767Z,16092
2018-05-31T07:29:06.333Z,16040
2018-05-31T07:30:06.897Z,16072
2018-05-31T07:31:07.449Z,16120
2018-05-31T07:32:08.014Z,16108
2018-05-31T07:33:08.565Z,15836
2018-05-31T07:34:09.127Z,15132
2018-05-31T07:35:09.686Z,13972
2018-05-31T07:36:10.260Z,12508
2018-05-31T07:37:10.809Z,10916
2018-05-31T07:38:11.365Z,9492
2018-05-31T07:39:11.926Z,8396
2018-05-31T07:40:12.490Z,7824
2018-05-31T07:41:13.049Z,7796
2018-05-31T07:42:13.610Z,8064
2018-05-31T07:43:14.202Z,8428
2018-05-31T07:44:14.749Z,8588
2018-05-31T07:45:15.305Z,8452
2018-05-31T07:46:15.865Z,8116
2018-05-31T07:47:16.424Z,7672
2018-05-31T07:48:16.980Z,7212
2018-05-31T07:49:17.544Z,6824
2018-05-31T07:50:18.102Z,6516
2018-05-31T07:51:18.689Z,6332
2018-05-31T07:52:19.217Z,6248
2018-05-31T07:53:19.776Z,6240
2018-05-31T07:54:20.338Z,6344
2018-05-31T07:55:20.899Z,6536
2018-05-31T07:56:21.463Z,6824
2018-05-31T07:57:22.026Z,7144
2018-05-31T07:58:22.605Z,7396
2018-05-31T07:59:23.139Z,7524
2018-05-31T08:00:23.698Z,7564
2018-05-31T08:01:24.249Z,7540
2018-05-31T08:02:24.824Z,7596
2018-05-31T08:03:25.409Z,7780
2018-05-31T08:04:25.947Z,8164
2018-05-31T08:05:26.512Z,8772
2018-05-31T08:06:27.071Z,9564
2018-05-31T08:07:27.628Z,10420
2018-05-31T08:08:28.189Z,11276
2018-05-31T08:09:28.782Z,11932
2018-05-31T08:10:29.307Z,12444
2018-05-31T08:11:29.865Z,12856
2018-05-31T08:12:30.425Z,13528
2018-05-31T08:13:30.980Z,14096
2018-05-31T08:14:31.545Z,14732
2018-05-31T08:15:32.103Z,15412
2018-05-31T08:16:32.664Z,16160
2018-05-31T08:17:33.223Z,17024
2018-05-31T08:18:33.783Z,17724
2018-05-31T08:19:34.340Z,18008
2018-05-31T08:20:34.944Z,17980
2018-05-31T08:21:35.461Z,17632
2018-05-31T08:22:36.021Z,17012
2018-05-31T08:23:36.585Z,16316
2018-05-31T08:24:37.348Z,15712
2018-05-31T08:25:38.194Z,14984
2018-05-31T08:26:38.758Z,14284
2018-05-31T08:27:39.309Z,13628
2018-05-31T08:28:39.870Z,13084
2018-05-31T08:29:40.431Z,12628
2018-05-31T08:30:40.994Z,12288
2018-05-31T08:31:41.613Z,11940
2018-05-31T08:32:42.105Z,11568
2018-05-31T08:33:42.671Z,11236
2018-05-31T08:34:43.227Z,10956
2018-05-31T08:35:43.784Z,10752
2018-05-31T08:36:44.356Z,10588
2018-05-31T08:37:44.914Z,10380
2018-05-31T08:38:45.471Z,10080
2018-05-31T08:39:46.030Z,9728
2018-05-31T08:40:46.580Z,9452
2018-05-31T08:41:47.137Z,9264
2018-05-31T08:42:47.699Z,9352
2018-05-31T08:43:48.259Z,9656
2018-05-31T08:44:48.815Z,9756
2018-05-31T08:45:49.376Z,9904
2018-05-31T08:46:49.925Z,10200
2018-05-31T08:47:50.489Z,10360
2018-05-31T08:48:51.050Z,10536
2018-05-31T08:49:51.611Z,10736
2018-05-31T08:50:52.170Z,10968
2018-05-31T08:51:52.735Z,11204
2018-05-31T08:52:53.295Z,11460
2018-05-31T08:53:53.856Z,11772
2018-05-31T08:54:54.415Z,12016
2018-05-31T08:55:54.981Z,12032
2018-05-31T08:56:55.537Z,11824
2018-05-31T08:57:56.097Z,11348
2018-05-31T08:58:56.651Z,10776
2018-05-31T08:59:57.214Z,10364
2018-05-31T09:00:57.775Z,10212
2018-05-31T09:01:58.331Z,10516
2018-05-31T09:02:58.897Z,11472
2018-05-31T09:03:59.453Z,12600
2018-05-31T09:05:00.007Z,13856
2018-05-31T09:06:00.568Z,15192
2018-05-31T09:07:01.130Z,16628
2018-05-31T09:08:01.692Z,18072
2018-05-31T09:09:02.251Z,19520
2018-05-31T09:10:02.807Z,20544
2018-05-31T09:11:03.367Z,21344
2018-05-31T09:12:03.927Z,21600
2018-05-31T09:13:04.486Z,21600
2018-05-31T09:14:05.047Z,21536
2018-05-31T09:15:05.639Z,21312
2018-05-31T09:16:06.172Z,21216
2018-05-31T09:17:06.736Z,21312
2018-05-31T09:18:07.295Z,21472
2018-05-31T09:19:07.858Z,21568
2018-05-31T09:20:08.416Z,21344
2018-05-31T09:21:08.982Z,20832
2018-05-31T09:22:09.541Z,19840
2018-05-31T09:23:10.107Z,18388
2018-05-31T09:24:10.667Z,17012
2018-05-31T09:25:11.225Z,15872
2018-05-31T09:26:11.789Z,14916
2018-05-31T09:27:12.352Z,14040
2018-05-31T09:28:12.909Z,13232
2018-05-31T09:29:13.468Z,12464
2018-05-31T09:30:14.033Z,11792
2018-05-31T09:31:14.584Z,11256
2018-05-31T09:32:15.166Z,10652
2018-05-31T09:33:15.717Z,10100
2018-05-31T09:34:16.280Z,9776
2018-05-31T09:35:16.847Z,9640
2018-05-31T09:36:17.406Z,9428
2018-05-31T09:37:17.961Z,9188
2018-05-31T09:38:18.524Z,9004
2018-05-31T09:39:19.083Z,9264
2018-05-31T09:40:19.644Z,9824
2018-05-31T09:41:20.205Z,10428
2018-05-31T09:42:20.766Z,11636
2018-05-31T09:43:21.324Z,12180
2018-05-31T09:44:21.890Z,12712
2018-05-31T09:45:22.453Z,13820
2018-05-31T09:46:23.017Z,14908
2018-05-31T09:47:23.575Z,15772
2018-05-31T09:48:24.143Z,16172
2018-05-31T09:49:24.702Z,16312
2018-05-31T09:50:25.259Z,15976
2018-05-31T09:51:25.819Z,15188
2018-05-31T09:52:26.378Z,14268
2018-05-31T09:53:26.944Z,13116
2018-05-31T09:54:27.507Z,11712
2018-05-31T09:55:28.066Z,10276
2018-05-31T09:56:28.630Z,8876
2018-05-31T09:57:29.187Z,7496
2018-05-31T09:58:29.747Z,6424
2018-05-31T09:59:30.308Z,5920
2018-05-31T10:00:30.868Z,5400
2018-05-31T10:01:31.432Z,5048
2018-05-31T10:02:31.989Z,4832
2018-05-31T10:03:32.550Z,4784
2018-05-31T10:04:33.115Z,4876
2018-05-31T10:05:33.673Z,5172
2018-05-31T10:06:34.232Z,5908
2018-05-31T10:07:34.787Z,6788
2018-05-31T10:08:35.342Z,7744
2018-05-31T10:09:35.903Z,8984
2018-05-31T10:10:36.469Z,10388
2018-05-31T10:11:37.029Z,11652
2018-05-31T10:12:37.590Z,12620
2018-05-31T10:13:38.152Z,13408
2018-05-31T10:14:38.711Z,14076
2018-05-31T10:15:39.268Z,14904
2018-05-31T10:16:39.829Z,16032
2018-05-31T10:17:40.393Z,17340
2018-05-31T10:18:40.951Z,18648
2018-05-31T10:19:41.510Z,19744
2018-05-31T10:20:42.075Z,20640
2018-05-31T10:21:42.627Z,21440
2018-05-31T10:22:43.184Z,22016
2018-05-31T10:23:43.741Z,22656
2018-05-31T10:24:44.305Z,23392
2018-05-31T10:25:44.866Z,24064
2018-05-31T10:26:45.427Z,24576
2018-05-31T10:27:45.989Z,24864
2018-05-31T10:28:46.548Z,25344
2018-05-31T10:29:47.120Z,26112
2018-05-31T10:30:47.675Z,27328
2018-05-31T10:31:48.256Z,28416
2018-05-31T10:32:48.810Z,29440
2018-05-31T10:33:49.391Z,30656
2018-05-31T10:34:49.978Z,32320
2018-05-31T10:35:50.563Z,34336
2018-05-31T10:36:51.123Z,36320
2018-05-31T10:37:51.818Z,37376
2018-05-31T10:38:52.374Z,37888
2018-05-31T10:39:52.939Z,37760
2018-05-31T10:40:53.509Z,37312
2018-05-31T10:41:54.065Z,36608
2018-05-31T10:42:54.626Z,35872
2018-05-31T10:43:55.188Z,35136
2018-05-31T10:44:55.747Z,34464
2018-05-31T10:45:56.312Z,33216
2018-05-31T10:46:56.865Z,31616
2018-05-31T10:47:57.429Z,30656
2018-05-31T10:48:57.990Z,30624
2018-05-31T10:49:58.550Z,30912
2018-05-31T10:50:59.114Z,31520
2018-05-31T10:51:59.679Z,32608
2018-05-31T10:53:00.245Z,34176
2018-05-31T10:54:00.831Z,36896
2018-05-31T10:55:01.375Z,40640
2018-05-31T10:56:01.941Z,46816
2018-05-31T10:57:02.503Z,54688
2018-05-31T10:58:03.084Z,69504
2018-05-31T10:59:03.638Z,60928
2018-05-31T11:00:04.208Z,59424
2018-05-31T11:01:04.765Z,79904
2018-05-31T11:02:05.327Z,75392
2018-05-31T11:03:05.896Z,100768
2018-05-31T11:04:06.463Z,76192
2018-05-31T11:05:07.022Z,100096
2018-05-31T11:06:07.590Z,109760
2018-05-31T11:07:08.163Z,160672
2018-05-31T11:08:08.739Z,101216
2018-05-31T11:09:09.304Z,137984
2018-05-31T11:10:09.872Z,113056
2018-05-31T11:11:10.445Z,131392
2018-05-31T11:12:11.012Z,148320
2018-05-31T11:13:11.581Z,151072
2018-05-31T11:14:12.154Z,147168
2018-05-31T11:15:12.726Z,147584
2018-05-31T11:16:13.301Z,145184
2018-05-31T11:17:13.874Z,84704
2018-05-31T11:18:14.445Z,83808
2018-05-31T11:19:15.026Z,81728
2018-05-31T11:20:15.593Z,104224
2018-05-31T11:21:16.179Z,87648
2018-05-31T11:22:16.748Z,86912
2018-05-31T11:23:17.339Z,93600
2018-05-31T11:24:17.911Z,110112
2018-05-31T11:25:18.485Z,120032
2018-05-31T11:26:19.071Z,98240
2018-05-31T11:27:19.641Z,101728
2018-05-31T11:28:20.217Z,69184
2018-05-31T11:29:20.797Z,72256
2018-05-31T11:30:21.373Z,107776
2018-05-31T11:31:21.960Z,93088
2018-05-31T11:32:22.528Z,75136
2018-05-31T11:33:23.104Z,69792
2018-05-31T11:34:23.687Z,57920
2018-05-31T11:35:24.262Z,58176
2018-05-31T11:36:24.843Z,65024
2018-05-31T11:37:25.444Z,114528
2018-05-31T11:38:26.039Z,76640
2018-05-31T11:39:26.612Z,114176
2018-05-31T11:40:27.188Z,96544
2018-05-31T11:41:27.788Z,154496
2018-05-31T11:42:28.364Z,153440
2018-05-31T11:43:28.945Z,136704
2018-05-31T11:44:29.561Z,129024
2018-05-31T11:45:30.119Z,134080
2018-05-31T11:46:30.718Z,123872
2018-05-31T11:47:31.298Z,120608
2018-05-31T11:48:31.873Z,121696
2018-05-31T11:49:32.452Z,135008
2018-05-31T11:50:33.050Z,129984
2018-05-31T11:51:33.636Z,124352
2018-05-31T11:52:34.255Z,119680
2018-05-31T11:53:34.784Z,121408
2018-05-31T11:54:35.361Z,127456
2018-05-31T11:55:35.939Z,132864
2018-05-31T11:56:36.508Z,134720
2018-05-31T11:57:37.086Z,99712
2018-05-31T11:58:37.664Z,75680
2018-05-31T11:59:38.253Z,85312
2018-05-31T12:00:38.825Z,64576
2018-05-31T12:01:39.405Z,109472
2018-05-31T12:02:39.972Z,97856
2018-05-31T12:03:40.563Z,96640
2018-05-31T12:04:41.116Z,90336
2018-05-31T12:05:41.705Z,106464
2018-05-31T12:06:42.275Z,131456
2018-05-31T12:07:42.850Z,134592
2018-05-31T12:08:43.422Z,96416
2018-05-31T12:09:44.012Z,80032
2018-05-31T12:10:44.634Z,108288
2018-05-31T12:11:45.175Z,151328
2018-05-31T12:12:45.750Z,150880
2018-05-31T12:13:46.327Z,127200
2018-05-31T12:14:46.909Z,70016
2018-05-31T12:15:47.512Z,88640
2018-05-31T12:16:48.084Z,89632
2018-05-31T12:17:48.658Z,113792
2018-05-31T12:18:49.231Z,121088
2018-05-31T12:19:49.797Z,122816
2018-05-31T12:20:50.373Z,119584
2018-05-31T12:21:50.946Z,113024
2018-05-31T12:22:51.527Z,106336
2018-05-31T12:23:52.106Z,101024
2018-05-31T12:24:52.684Z,103648
2018-05-31T12:25:53.261Z,105984
2018-05-31T12:26:53.836Z,109280
2018-05-31T12:27:54.414Z,110976
2018-05-31T12:28:54.994Z,111008
2018-05-31T12:29:55.562Z,110688
2018-05-31T12:30:56.144Z,108416
2018-05-31T12:31:56.712Z,108320
2018-05-31T12:32:57.290Z,110496
2018-05-31T12:33:57.868Z,115392
2018-05-31T12:36:13.906Z,113120
2018-05-31T12:37:14.471Z,112416
2018-05-31T12:38:15.050Z,109120
2018-05-31T12:39:15.624Z,108416
2018-05-31T12:40:16.200Z,109760
2018-05-31T12:41:16.773Z,111648
2018-05-31T12:42:17.350Z,114016
2018-05-31T12:43:17.922Z,114784
2018-05-31T12:44:18.490Z,114208
2018-05-31T12:45:19.064Z,110848
2018-05-31T12:46:19.640Z,106560
2018-05-31T12:47:20.210Z,103424
2018-05-31T12:48:20.782Z,100992
2018-05-31T12:49:21.357Z,103520
2018-05-31T12:50:21.934Z,108256
2018-05-31T12:51:22.499Z,113440
2018-05-31T12:52:23.075Z,116096
2018-05-31T12:53:23.647Z,113024
2018-05-31T12:54:24.221Z,109120
2018-05-31T12:55:24.798Z,102400
2018-05-31T12:56:25.365Z,98624
2018-05-31T12:57:25.937Z,100128
2018-05-31T12:58:26.522Z,91648
2018-05-31T12:59:27.095Z,15812
2018-05-31T13:00:27.663Z,12224
2018-05-31T13:01:28.229Z,14248
2018-05-31T13:02:28.795Z,13344
2018-05-31T13:03:29.368Z,13884
2018-05-31T13:04:29.937Z,14340
2018-05-31T13:05:30.542Z,14548
2018-05-31T13:06:31.077Z,14344
2018-05-31T13:07:31.647Z,14332
2018-05-31T13:08:32.218Z,14288
2018-05-31T13:09:32.788Z,14168
2018-05-31T13:10:33.361Z,13808
2018-05-31T13:11:33.928Z,13428
2018-05-31T13:12:34.500Z,13400
2018-05-31T13:13:35.131Z,13720
2018-05-31T13:14:35.640Z,14232
2018-05-31T13:15:36.206Z,14584
2018-05-31T13:16:36.771Z,14784
2018-05-31T13:17:37.338Z,14976
2018-05-31T13:18:37.912Z,15272
2018-05-31T13:19:38.479Z,15572
2018-05-31T13:20:39.044Z,15704
2018-05-31T13:21:39.612Z,15800
2018-05-31T13:22:40.181Z,15732
2018-05-31T13:23:40.746Z,15452
2018-05-31T13:24:41.327Z,15104
2018-05-31T13:25:41.887Z,14768
2018-05-31T13:26:42.453Z,14428
2018-05-31T13:27:43.018Z,14204
2018-05-31T13:28:43.588Z,13920
2018-05-31T13:29:44.148Z,13708
2018-05-31T13:30:44.710Z,13516
2018-05-31T13:31:45.283Z,13308